createdAt,value
2019-03-17T00:01:08.979Z,5.88
2019-03-17T00:02:46.202Z,5.92
2019-03-17T00:04:31.487Z,5.88
2019-03-17T00:06:01.683Z,5.88
2019-03-17T00:07:36.870Z,5.91
2019-03-17T00:09:12.265Z,5.95
2019-03-17T00:10:52.739Z,5.91
2019-03-17T00:12:31.393Z,5.94
2019-03-17T00:14:05.624Z,5.95
2019-03-17T00:15:40.675Z,6.00
2019-03-17T00:17:16.331Z,5.99
2019-03-17T00:18:54.967Z,5.99
2019-03-17T00:20:31.958Z,6.00
2019-03-17T00:22:24.273Z,5.98
2019-03-17T00:23:59.734Z,6.01
2019-03-17T00:25:35.123Z,6.01
2019-03-17T00:27:15.193Z,6.01
2019-03-17T00:28:50.625Z,6.00
2019-03-17T00:30:30.240Z,6.01
2019-03-17T00:32:07.791Z,6.06
2019-03-17T00:33:48.813Z,6.08
2019-03-17T00:35:24.882Z,6.10
2019-03-17T00:37:00.272Z,6.06
2019-03-17T00:38:37.541Z,6.09
2019-03-17T00:40:13.768Z,6.12
2019-03-17T00:41:57.418Z,6.08
2019-03-17T00:43:33.362Z,6.07
2019-03-17T00:45:11.344Z,6.07
2019-03-17T00:46:49.213Z,6.10
2019-03-17T00:48:25.670Z,6.12
2019-03-17T00:50:03.661Z,6.14
2019-03-17T00:51:41.815Z,6.15
2019-03-17T00:53:20.000Z,6.11
2019-03-17T00:54:58.214Z,6.16
2019-03-17T00:56:38.149Z,6.15
2019-03-17T00:58:14.006Z,6.17
2019-03-17T00:59:49.949Z,6.16
2019-03-17T01:01:26.686Z,6.16
2019-03-17T01:03:01.815Z,6.17
2019-03-17T01:04:37.945Z,6.16
2019-03-17T01:06:13.711Z,6.19
2019-03-17T01:07:49.075Z,6.17
2019-03-17T01:09:25.913Z,6.25
2019-03-17T01:11:01.997Z,6.19
2019-03-17T01:12:38.227Z,6.24
2019-03-17T01:14:13.573Z,6.27
2019-03-17T01:15:49.475Z,6.23
2019-03-17T01:17:25.582Z,6.25
2019-03-17T01:19:03.101Z,6.24
2019-03-17T01:20:38.512Z,6.26
2019-03-17T01:22:13.776Z,6.24
2019-03-17T01:23:48.952Z,6.29
2019-03-17T01:25:24.154Z,6.27
2019-03-17T01:27:00.063Z,6.27
2019-03-17T01:28:35.654Z,6.29
2019-03-17T01:30:12.196Z,6.31
2019-03-17T01:31:47.668Z,6.30
2019-03-17T01:33:22.986Z,6.29
2019-03-17T01:35:08.495Z,6.31
2019-03-17T01:36:40.202Z,6.33
2019-03-17T01:38:15.723Z,6.31
2019-03-17T01:39:51.456Z,6.36
2019-03-17T01:41:29.670Z,6.31
2019-03-17T01:43:08.343Z,6.31
2019-03-17T01:44:44.937Z,6.33
2019-03-17T01:46:22.325Z,6.41
2019-03-17T01:48:00.621Z,6.36
2019-03-17T01:49:36.969Z,6.37
2019-03-17T01:51:13.224Z,6.40
2019-03-17T01:52:48.601Z,6.41
2019-03-17T01:54:23.911Z,6.41
2019-03-17T01:55:59.178Z,6.41
2019-03-17T01:57:36.175Z,6.41
2019-03-17T01:59:11.295Z,6.47
2019-03-17T02:00:46.887Z,6.43
2019-03-17T02:02:23.794Z,6.42
2019-03-17T02:04:00.069Z,6.42
2019-03-17T02:05:35.776Z,6.38
2019-03-17T02:07:13.337Z,6.40
2019-03-17T02:08:48.979Z,6.40
2019-03-17T02:10:24.730Z,6.40
2019-03-17T02:11:59.836Z,6.41
2019-03-17T02:13:35.705Z,6.42
2019-03-17T02:15:12.683Z,6.44
2019-03-17T02:16:47.916Z,6.43
2019-03-17T02:18:23.063Z,6.43
2019-03-17T02:19:58.113Z,6.42
2019-03-17T02:21:33.903Z,6.41
2019-03-17T02:23:09.317Z,6.40
2019-03-17T02:24:44.633Z,6.41
2019-03-17T02:26:19.948Z,6.46
2019-03-17T02:27:56.219Z,6.42
2019-03-17T02:29:31.833Z,6.43
2019-03-17T02:31:07.272Z,6.40
2019-03-17T02:32:42.462Z,6.37
2019-03-17T02:34:17.857Z,6.39
2019-03-17T02:35:53.227Z,6.38
2019-03-17T02:37:28.390Z,6.39
2019-03-17T02:39:07.084Z,6.40
2019-03-17T02:40:42.205Z,6.42
2019-03-17T02:42:17.717Z,6.40
2019-03-17T02:43:53.546Z,6.42
2019-03-17T02:45:31.096Z,6.43
2019-03-17T02:47:06.754Z,6.42
2019-03-17T02:48:42.104Z,6.42
2019-03-17T02:50:18.340Z,6.43
2019-03-17T02:51:54.710Z,6.36
2019-03-17T02:53:30.588Z,6.38
2019-03-17T02:55:06.687Z,6.38
2019-03-17T02:56:42.049Z,6.39
2019-03-17T02:58:17.280Z,6.42
2019-03-17T02:59:56.128Z,6.41
2019-03-17T03:01:31.653Z,6.45
2019-03-17T03:03:06.979Z,6.43
2019-03-17T03:04:42.106Z,6.43
2019-03-17T03:06:17.506Z,6.41
2019-03-17T03:07:53.649Z,6.41
2019-03-17T03:09:28.984Z,6.43
2019-03-17T03:11:04.154Z,6.38
2019-03-17T03:12:39.268Z,6.40
2019-03-17T03:14:16.685Z,6.37
2019-03-17T03:15:52.148Z,6.40
2019-03-17T03:17:30.450Z,6.39
2019-03-17T03:19:05.948Z,6.42
2019-03-17T03:20:41.384Z,6.41
2019-03-17T03:22:18.979Z,6.40
2019-03-17T03:23:54.673Z,6.46
2019-03-17T03:25:32.224Z,6.42
2019-03-17T03:27:09.690Z,6.39
2019-03-17T03:28:46.504Z,6.39
2019-03-17T03:30:22.142Z,6.38
2019-03-17T03:31:57.439Z,6.40
2019-03-17T03:33:32.983Z,6.41
2019-03-17T03:35:14.278Z,6.40
2019-03-17T03:36:52.544Z,6.43
2019-03-17T03:38:28.403Z,6.42
2019-03-17T03:40:03.636Z,6.40
2019-03-17T03:41:38.898Z,6.40
2019-03-17T03:43:14.096Z,6.42
2019-03-17T03:44:52.117Z,6.41
2019-03-17T03:46:27.631Z,6.39
2019-03-17T03:48:03.943Z,6.40
2019-03-17T03:49:39.780Z,6.41
2019-03-17T03:51:15.876Z,6.43
2019-03-17T03:52:51.340Z,6.41
2019-03-17T03:54:26.686Z,6.43
2019-03-17T03:56:01.996Z,6.41
2019-03-17T03:57:37.433Z,6.39
2019-03-17T03:59:12.604Z,6.41
2019-03-17T04:00:47.894Z,6.44
2019-03-17T04:02:24.904Z,6.41
2019-03-17T04:03:59.990Z,6.43
2019-03-17T04:05:35.061Z,6.42
2019-03-17T04:07:10.229Z,6.40
2019-03-17T04:08:45.806Z,6.42
2019-03-17T04:10:21.357Z,6.41
2019-03-17T04:11:56.653Z,6.42
2019-03-17T04:13:32.030Z,6.38
2019-03-17T04:15:08.038Z,6.41
2019-03-17T04:16:43.452Z,6.39
2019-03-17T04:18:18.919Z,6.39
2019-03-17T04:19:54.560Z,6.39
2019-03-17T04:21:29.914Z,6.38
2019-03-17T04:23:09.959Z,6.35
2019-03-17T04:24:44.927Z,6.38
2019-03-17T04:26:20.847Z,6.36
2019-03-17T04:27:56.607Z,6.37
2019-03-17T04:29:31.911Z,6.36
2019-03-17T04:31:07.258Z,6.33
2019-03-17T04:32:42.897Z,6.32
2019-03-17T04:34:18.341Z,6.32
2019-03-17T04:35:53.889Z,6.33
2019-03-17T04:37:29.556Z,6.36
2019-03-17T04:39:05.474Z,6.32
2019-03-17T04:40:40.541Z,6.31
2019-03-17T04:42:17.246Z,6.33
2019-03-17T04:43:52.325Z,6.29
2019-03-17T04:45:27.463Z,6.29
2019-03-17T04:47:03.018Z,6.33
2019-03-17T04:48:38.338Z,6.30
2019-03-17T04:50:13.682Z,6.31
2019-03-17T04:51:48.847Z,6.31
2019-03-17T04:53:24.061Z,6.32
2019-03-17T04:54:59.474Z,6.33
2019-03-17T04:56:34.526Z,6.33
2019-03-17T04:58:09.970Z,6.31
2019-03-17T04:59:45.101Z,6.31
2019-03-17T05:01:20.177Z,6.32
2019-03-17T05:02:55.929Z,6.32
2019-03-17T05:04:31.064Z,6.37
2019-03-17T05:06:06.537Z,6.33
2019-03-17T05:07:42.166Z,6.32
2019-03-17T05:09:17.294Z,6.31
2019-03-17T05:10:52.683Z,6.31
2019-03-17T05:12:28.275Z,6.26
2019-03-17T05:14:04.671Z,6.27
2019-03-17T05:15:39.932Z,6.22
2019-03-17T05:17:14.968Z,6.17
2019-03-17T05:18:50.342Z,6.12
2019-03-17T05:20:28.927Z,6.07
2019-03-17T05:22:04.400Z,6.01
2019-03-17T05:23:39.676Z,5.99
2019-03-17T05:25:15.026Z,5.99
2019-03-17T05:26:55.642Z,5.94
2019-03-17T05:28:30.767Z,5.88
2019-03-17T05:30:08.123Z,5.83
2019-03-17T05:31:43.474Z,5.79
2019-03-17T05:33:18.526Z,5.78
2019-03-17T05:34:53.585Z,5.77
2019-03-17T05:36:28.993Z,5.70
2019-03-17T05:38:07.304Z,5.60
2019-03-17T05:39:44.137Z,5.59
2019-03-17T05:41:19.193Z,5.58
2019-03-17T05:42:55.160Z,5.52
2019-03-17T05:44:30.553Z,5.52
2019-03-17T05:46:06.259Z,5.46
2019-03-17T05:47:41.411Z,5.47
2019-03-17T05:49:16.839Z,5.47
2019-03-17T05:50:52.124Z,5.42
2019-03-17T05:52:27.766Z,5.37
2019-03-17T05:54:03.270Z,5.36
2019-03-17T05:55:38.834Z,5.34
2019-03-17T05:57:14.137Z,5.34
2019-03-17T05:58:49.613Z,5.35
2019-03-17T06:00:25.031Z,5.36
2019-03-17T06:02:01.655Z,5.36
2019-03-17T06:03:37.281Z,5.31
2019-03-17T06:05:12.605Z,5.34
2019-03-17T06:06:50.040Z,5.29
2019-03-17T06:08:25.458Z,5.31
2019-03-17T06:10:00.611Z,5.28
2019-03-17T06:11:35.915Z,5.27
2019-03-17T06:13:10.996Z,5.31
2019-03-17T06:14:48.442Z,5.28
2019-03-17T06:16:24.081Z,5.32
2019-03-17T06:18:02.391Z,5.32
2019-03-17T06:19:37.700Z,5.31
2019-03-17T06:21:13.059Z,5.35
2019-03-17T06:22:48.169Z,5.34
2019-03-17T06:24:24.051Z,5.36
2019-03-17T06:25:59.359Z,5.36
2019-03-17T06:27:34.813Z,5.43
2019-03-17T06:29:10.144Z,5.39
2019-03-17T06:30:45.945Z,5.40
2019-03-17T06:32:21.300Z,5.43
2019-03-17T06:33:59.509Z,5.45
2019-03-17T06:35:34.627Z,5.43
2019-03-17T06:37:09.899Z,5.39
2019-03-17T06:38:48.414Z,5.43
2019-03-17T06:40:23.934Z,5.39
2019-03-17T06:41:59.475Z,5.36
2019-03-17T06:43:34.695Z,5.42
2019-03-17T06:45:13.058Z,5.41
2019-03-17T06:46:48.534Z,5.34
2019-03-17T06:48:23.700Z,5.34
2019-03-17T06:49:58.863Z,5.31
2019-03-17T06:51:37.429Z,5.29
2019-03-17T06:53:14.284Z,5.29
2019-03-17T06:54:50.274Z,5.29
2019-03-17T06:56:26.064Z,5.34
2019-03-17T06:58:01.874Z,5.32
2019-03-17T06:59:37.466Z,5.36
2019-03-17T07:01:12.875Z,5.34
2019-03-17T07:02:50.217Z,5.37
2019-03-17T07:04:25.768Z,5.37
2019-03-17T07:06:01.495Z,5.37
2019-03-17T07:07:43.742Z,5.38
2019-03-17T07:09:15.133Z,5.39
2019-03-17T07:10:53.862Z,5.42
2019-03-17T07:12:31.034Z,5.38
2019-03-17T07:14:12.112Z,5.36
2019-03-17T07:15:46.276Z,5.39
2019-03-17T07:17:21.492Z,5.36
2019-03-17T07:18:56.593Z,5.36
2019-03-17T07:20:32.034Z,5.38
2019-03-17T07:22:08.054Z,5.39
2019-03-17T07:23:43.275Z,5.38
2019-03-17T07:25:18.381Z,5.40
2019-03-17T07:26:57.854Z,5.39
2019-03-17T07:28:33.332Z,5.35
2019-03-17T07:30:14.474Z,5.37
2019-03-17T07:31:49.830Z,5.37
2019-03-17T07:33:27.869Z,5.37
2019-03-17T07:35:03.447Z,5.39
2019-03-17T07:36:39.195Z,5.39
2019-03-17T07:38:15.356Z,5.38
2019-03-17T07:39:54.317Z,5.36
2019-03-17T07:41:36.275Z,5.38
2019-03-17T07:43:11.541Z,5.33
2019-03-17T07:44:48.256Z,5.38
2019-03-17T07:46:23.940Z,5.36
2019-03-17T07:47:59.434Z,5.34
2019-03-17T07:49:40.875Z,5.38
2019-03-17T07:51:16.085Z,5.36
2019-03-17T07:52:52.265Z,5.40
2019-03-17T07:54:27.997Z,5.34
2019-03-17T07:56:16.971Z,5.36
2019-03-17T07:58:00.995Z,5.40
2019-03-17T07:59:40.934Z,5.36
2019-03-17T08:01:16.644Z,5.37
2019-03-17T08:02:52.967Z,5.38
2019-03-17T08:04:42.422Z,5.39
2019-03-17T08:06:11.240Z,5.32
2019-03-17T08:07:46.561Z,5.35
2019-03-17T08:09:25.377Z,5.39
2019-03-17T08:11:00.605Z,5.41
2019-03-17T08:12:36.132Z,5.40
2019-03-17T08:14:14.364Z,5.37
2019-03-17T08:15:58.306Z,5.37
2019-03-17T08:17:33.831Z,5.35
2019-03-17T08:19:11.193Z,5.35
2019-03-17T08:20:48.437Z,5.35
2019-03-17T08:22:26.601Z,5.35
2019-03-17T08:24:08.067Z,5.35
2019-03-17T08:25:48.324Z,5.37
2019-03-17T08:27:23.529Z,5.42
2019-03-17T08:28:59.348Z,5.31
2019-03-17T08:30:35.818Z,5.29
2019-03-17T08:32:17.314Z,5.30
2019-03-17T08:33:52.511Z,5.20
2019-03-17T08:35:28.376Z,5.19
2019-03-17T08:37:07.371Z,5.08
2019-03-17T08:38:48.807Z,5.04
2019-03-17T08:40:30.202Z,5.10
2019-03-17T08:42:09.136Z,5.12
2019-03-17T08:43:53.850Z,4.98
2019-03-17T08:45:20.996Z,4.98
2019-03-17T08:46:59.512Z,4.93
2019-03-17T08:48:37.048Z,4.99
2019-03-17T08:50:14.701Z,4.77
2019-03-17T08:51:51.440Z,4.82
2019-03-17T08:53:28.155Z,4.76
2019-03-17T08:55:05.454Z,4.77
2019-03-17T08:56:43.154Z,4.73
2019-03-17T08:58:18.648Z,4.73
2019-03-17T08:59:55.555Z,4.75
2019-03-17T09:01:32.978Z,4.67
2019-03-17T09:03:12.608Z,4.79
2019-03-17T09:04:48.527Z,4.91
2019-03-17T09:06:24.287Z,4.74
2019-03-17T09:08:09.426Z,4.71
2019-03-17T09:09:50.740Z,4.67
2019-03-17T09:11:25.862Z,4.61
2019-03-17T09:13:05.375Z,4.78
2019-03-17T09:14:47.420Z,4.70
2019-03-17T09:16:22.872Z,4.69
2019-03-17T09:18:01.194Z,4.62
2019-03-17T09:19:38.696Z,4.76
2019-03-17T09:21:18.781Z,4.88
2019-03-17T09:23:02.189Z,4.90
2019-03-17T09:24:40.736Z,4.87
2019-03-17T09:26:24.951Z,4.86
2019-03-17T09:28:05.177Z,4.71
2019-03-17T09:29:48.145Z,4.81
2019-03-17T09:31:24.610Z,4.81
2019-03-17T09:33:07.146Z,4.93
2019-03-17T09:34:46.489Z,4.85
2019-03-17T09:36:25.001Z,4.71
2019-03-17T09:38:10.995Z,4.82
2019-03-17T09:39:46.809Z,4.89
2019-03-17T09:41:22.321Z,4.96
2019-03-17T09:42:58.815Z,4.93
2019-03-17T09:44:35.592Z,4.93
2019-03-17T09:46:20.262Z,4.96
2019-03-17T09:47:59.926Z,4.93
2019-03-17T09:49:41.916Z,4.79
2019-03-17T09:51:18.647Z,4.81
2019-03-17T09:52:56.314Z,4.95
2019-03-17T09:54:35.146Z,5.01
2019-03-17T09:56:20.974Z,5.07
2019-03-17T09:58:01.441Z,5.11
2019-03-17T09:59:38.777Z,4.92
2019-03-17T10:01:14.567Z,5.01
2019-03-17T10:02:55.158Z,5.14
2019-03-17T10:04:30.719Z,5.27
2019-03-17T10:06:05.947Z,5.36
2019-03-17T10:07:41.185Z,5.29
2019-03-17T10:09:25.908Z,5.38
2019-03-17T10:11:10.871Z,5.39
2019-03-17T10:12:56.638Z,5.50
2019-03-17T10:14:34.490Z,5.48
2019-03-17T10:16:14.211Z,5.48
2019-03-17T10:17:49.828Z,5.27
2019-03-17T10:19:29.755Z,5.28
2019-03-17T10:21:10.383Z,5.35
2019-03-17T10:22:45.766Z,5.19
2019-03-17T10:24:33.361Z,5.34
2019-03-17T10:26:24.248Z,5.43
2019-03-17T10:28:04.247Z,5.35
2019-03-17T10:29:48.464Z,5.42
2019-03-17T10:31:26.104Z,5.36
2019-03-17T10:33:04.369Z,5.31
2019-03-17T10:34:39.915Z,5.11
2019-03-17T10:36:17.936Z,5.30
2019-03-17T10:37:57.066Z,5.34
2019-03-17T10:39:35.176Z,5.31
2019-03-17T10:41:11.649Z,5.45
2019-03-17T10:42:48.377Z,5.67
2019-03-17T10:44:25.319Z,5.52
2019-03-17T10:46:00.800Z,5.44
2019-03-17T10:47:38.933Z,5.54
2019-03-17T10:49:14.107Z,5.48
2019-03-17T10:50:55.211Z,5.55
2019-03-17T10:52:36.011Z,5.61
2019-03-17T10:54:14.832Z,5.62
2019-03-17T10:56:07.176Z,5.53
2019-03-17T10:57:43.526Z,5.68
2019-03-17T10:59:27.809Z,5.52
2019-03-17T11:01:08.339Z,5.57
2019-03-17T11:02:46.103Z,5.78
2019-03-17T11:04:24.958Z,5.72
2019-03-17T11:06:01.385Z,5.55
2019-03-17T11:07:43.411Z,5.68
2019-03-17T11:09:26.595Z,5.52
2019-03-17T11:11:12.034Z,5.67
2019-03-17T11:12:48.234Z,5.64
2019-03-17T11:14:23.822Z,5.80
2019-03-17T11:16:01.784Z,5.72
2019-03-17T11:17:38.082Z,5.79
2019-03-17T11:19:17.062Z,5.74
2019-03-17T11:20:54.466Z,5.62
2019-03-17T11:22:29.614Z,5.73
2019-03-17T11:24:05.287Z,5.57
2019-03-17T11:25:40.905Z,5.59
2019-03-17T11:27:16.789Z,5.75
2019-03-17T11:28:56.326Z,5.69
2019-03-17T11:30:34.784Z,5.63
2019-03-17T11:32:24.452Z,5.77
2019-03-17T11:34:00.731Z,5.73
2019-03-17T11:35:36.020Z,5.84
2019-03-17T11:37:15.295Z,5.90
2019-03-17T11:38:52.919Z,5.92
2019-03-17T11:40:28.304Z,5.99
2019-03-17T11:42:08.871Z,6.02
2019-03-17T11:43:46.007Z,6.27
2019-03-17T11:45:29.811Z,6.00
2019-03-17T11:47:07.987Z,5.97
2019-03-17T11:48:43.252Z,6.11
2019-03-17T11:50:28.011Z,6.26
2019-03-17T11:52:05.861Z,6.17
2019-03-17T11:53:53.736Z,6.03
2019-03-17T11:55:32.154Z,6.35
2019-03-17T11:57:07.542Z,6.35
2019-03-17T11:58:44.423Z,6.31
2019-03-17T12:00:25.888Z,6.30
2019-03-17T12:02:05.146Z,6.45
2019-03-17T12:03:43.173Z,6.41
2019-03-17T12:05:27.431Z,6.48
2019-03-17T12:07:02.953Z,6.34
2019-03-17T12:08:39.114Z,6.15
2019-03-17T12:10:18.585Z,6.26
2019-03-17T12:11:55.795Z,6.53
2019-03-17T12:13:33.242Z,6.80
2019-03-17T12:15:15.510Z,6.65
2019-03-17T12:16:53.047Z,6.50
2019-03-17T12:18:34.104Z,6.26
2019-03-17T12:20:17.474Z,6.10
2019-03-17T12:22:08.436Z,5.97
2019-03-17T12:23:34.186Z,6.06
2019-03-17T12:25:12.382Z,6.11
2019-03-17T12:26:49.196Z,6.02
2019-03-17T12:28:27.488Z,6.04
2019-03-17T12:30:08.754Z,6.18
2019-03-17T12:31:48.832Z,5.94
2019-03-17T12:33:25.428Z,5.97
2019-03-17T12:35:00.658Z,5.97
2019-03-17T12:36:38.186Z,6.03
2019-03-17T12:38:14.121Z,6.17
2019-03-17T12:40:02.525Z,6.29
2019-03-17T12:41:33.368Z,6.26
2019-03-17T12:43:10.725Z,6.16
2019-03-17T12:44:46.008Z,6.30
2019-03-17T12:46:24.522Z,6.30
2019-03-17T12:48:00.232Z,6.39
2019-03-17T12:49:38.717Z,6.32
2019-03-17T12:51:15.398Z,6.62
2019-03-17T12:52:51.087Z,6.91
2019-03-17T12:54:45.523Z,6.94
2019-03-17T12:56:27.983Z,7.10
2019-03-17T12:58:03.119Z,7.40
2019-03-17T12:59:38.989Z,7.38
2019-03-17T13:01:14.146Z,7.24
2019-03-17T13:02:52.953Z,7.08
2019-03-17T13:04:28.526Z,7.08
2019-03-17T13:06:03.714Z,7.00
2019-03-17T13:07:39.191Z,7.00
2019-03-17T13:09:24.422Z,6.92
2019-03-17T13:11:04.991Z,7.00
2019-03-17T13:12:42.657Z,7.04
2019-03-17T13:14:20.593Z,7.03
2019-03-17T13:15:59.350Z,6.91
2019-03-17T13:17:38.545Z,6.84
2019-03-17T13:19:13.762Z,6.74
2019-03-17T13:20:51.679Z,6.48
2019-03-17T13:22:30.939Z,6.40
2019-03-17T13:24:08.960Z,5.94
2019-03-17T13:25:50.432Z,5.69
2019-03-17T13:27:34.325Z,5.25
2019-03-17T13:29:06.897Z,4.99
2019-03-17T13:30:51.462Z,4.95
2019-03-17T13:32:28.693Z,5.01
2019-03-17T13:34:06.690Z,5.24
2019-03-17T13:35:42.161Z,5.37
2019-03-17T13:37:17.612Z,5.35
2019-03-17T13:38:59.111Z,5.52
2019-03-17T13:40:36.940Z,5.58
2019-03-17T13:42:15.542Z,5.76
2019-03-17T13:43:55.216Z,5.93
2019-03-17T13:45:33.684Z,6.14
2019-03-17T13:47:10.849Z,6.30
2019-03-17T13:48:54.531Z,6.19
2019-03-17T13:50:30.046Z,6.24
2019-03-17T13:52:06.715Z,6.32
2019-03-17T13:53:43.632Z,6.13
2019-03-17T13:55:22.241Z,6.17
2019-03-17T13:57:00.091Z,6.06
2019-03-17T13:58:35.326Z,6.06
2019-03-17T14:00:15.301Z,6.06
2019-03-17T14:01:57.554Z,6.34
2019-03-17T14:03:33.172Z,6.53
2019-03-17T14:05:17.255Z,6.12
2019-03-17T14:06:51.669Z,6.12
2019-03-17T14:08:28.297Z,6.33
2019-03-17T14:10:18.648Z,6.32
2019-03-17T14:12:03.279Z,6.38
2019-03-17T14:13:45.626Z,6.38
2019-03-17T14:15:36.901Z,6.38
2019-03-17T14:17:16.528Z,6.44
2019-03-17T14:18:53.486Z,6.37
2019-03-17T14:20:39.183Z,6.40
2019-03-17T14:22:16.676Z,6.18
2019-03-17T14:23:55.546Z,6.15
2019-03-17T14:25:31.452Z,5.97
2019-03-17T14:27:13.417Z,5.88
2019-03-17T14:28:52.916Z,5.86
2019-03-17T14:30:33.278Z,5.79
2019-03-17T14:32:09.428Z,5.56
2019-03-17T14:33:56.129Z,5.50
2019-03-17T14:35:36.134Z,5.52
2019-03-17T14:37:15.668Z,5.53
2019-03-17T14:38:51.599Z,5.36
2019-03-17T14:40:29.365Z,5.38
2019-03-17T14:42:08.983Z,5.39
2019-03-17T14:43:54.099Z,5.30
2019-03-17T14:45:29.538Z,5.13
2019-03-17T14:47:06.359Z,5.18
2019-03-17T14:48:49.346Z,5.23
2019-03-17T14:50:25.647Z,5.49
2019-03-17T14:52:04.926Z,5.62
2019-03-17T14:53:51.018Z,5.80
2019-03-17T14:55:27.411Z,5.70
2019-03-17T14:57:08.868Z,5.76
2019-03-17T14:58:51.427Z,6.01
2019-03-17T15:00:31.125Z,5.81
2019-03-17T15:02:13.222Z,5.79
2019-03-17T15:03:54.654Z,6.00
2019-03-17T15:05:29.936Z,6.08
2019-03-17T15:07:08.357Z,5.91
2019-03-17T15:08:44.057Z,5.86
2019-03-17T15:10:19.957Z,5.89
2019-03-17T15:11:57.753Z,5.80
2019-03-17T15:13:36.055Z,5.43
2019-03-17T15:15:14.544Z,5.42
2019-03-17T15:16:51.447Z,5.39
2019-03-17T15:18:27.184Z,5.39
2019-03-17T15:20:05.177Z,5.35
2019-03-17T15:21:43.998Z,5.34
2019-03-17T15:23:22.372Z,5.46
2019-03-17T15:24:57.903Z,5.39
2019-03-17T15:26:44.758Z,5.61
2019-03-17T15:28:22.695Z,5.82
2019-03-17T15:30:07.224Z,6.03
2019-03-17T15:31:50.911Z,6.03
2019-03-17T15:33:32.050Z,6.03
2019-03-17T15:35:10.264Z,5.79
2019-03-17T15:36:45.483Z,5.76
2019-03-17T15:38:22.294Z,5.61
2019-03-17T15:40:00.431Z,5.43
2019-03-17T15:41:45.213Z,5.35
2019-03-17T15:43:22.324Z,5.34
2019-03-17T15:45:03.017Z,5.33
2019-03-17T15:46:40.488Z,5.27
2019-03-17T15:48:26.443Z,5.28
2019-03-17T15:50:05.176Z,5.29
2019-03-17T15:51:54.101Z,5.32
2019-03-17T15:53:30.111Z,5.33
2019-03-17T15:55:09.499Z,5.25
2019-03-17T15:56:47.416Z,5.30
2019-03-17T15:58:25.537Z,5.22
2019-03-17T16:00:08.537Z,5.14
2019-03-17T16:01:54.494Z,5.15
2019-03-17T16:03:35.185Z,5.10
2019-03-17T16:05:14.636Z,5.07
2019-03-17T16:06:50.878Z,5.01
2019-03-17T16:08:26.309Z,4.97
2019-03-17T16:10:01.860Z,4.76
2019-03-17T16:11:38.804Z,4.42
2019-03-17T16:13:13.970Z,4.06
2019-03-17T16:14:51.361Z,3.87
2019-03-17T16:16:40.206Z,3.74
2019-03-17T16:18:19.938Z,3.59
2019-03-17T16:19:56.306Z,3.40
2019-03-17T16:21:31.519Z,3.40
2019-03-17T16:23:08.271Z,3.44
2019-03-17T16:24:53.196Z,3.38
2019-03-17T16:26:53.380Z,3.39
2019-03-17T16:28:34.050Z,3.45
2019-03-17T16:30:18.081Z,3.52
2019-03-17T16:33:50.465Z,3.65
2019-03-17T16:35:28.772Z,3.64
2019-03-17T16:37:18.970Z,3.62
2019-03-17T16:38:53.771Z,3.58
2019-03-17T16:40:34.412Z,3.51
2019-03-17T16:42:11.400Z,3.45
2019-03-17T16:43:47.240Z,3.45
2019-03-17T16:45:22.558Z,3.35
2019-03-17T16:46:58.154Z,3.36
2019-03-17T16:48:35.237Z,3.34
2019-03-17T16:50:13.584Z,3.35
2019-03-17T16:51:52.139Z,3.26
2019-03-17T16:53:27.371Z,3.19
2019-03-17T16:55:02.554Z,3.20
2019-03-17T16:56:42.245Z,3.13
2019-03-17T16:58:18.129Z,3.13
2019-03-17T16:59:56.864Z,3.19
2019-03-17T17:01:31.808Z,3.18
2019-03-17T17:03:15.730Z,3.10
2019-03-17T17:04:52.339Z,3.08
2019-03-17T17:06:27.444Z,3.12
2019-03-17T17:08:10.794Z,3.12
2019-03-17T17:09:50.060Z,3.12
2019-03-17T17:11:25.845Z,3.07
2019-03-17T17:13:01.813Z,3.06
2019-03-17T17:14:38.179Z,3.05
2019-03-17T17:16:13.936Z,3.05
2019-03-17T17:17:51.724Z,3.04
2019-03-17T17:19:29.391Z,2.98
2019-03-17T17:21:09.547Z,2.93
2019-03-17T17:22:47.611Z,2.95
2019-03-17T17:24:27.406Z,2.95
2019-03-17T17:26:05.981Z,2.93
2019-03-17T17:27:41.370Z,2.96
2019-03-17T17:29:16.689Z,2.91
2019-03-17T17:30:54.676Z,2.85
2019-03-17T17:32:30.250Z,2.86
2019-03-17T17:34:05.591Z,2.81
2019-03-17T17:35:40.997Z,2.74
2019-03-17T17:37:16.561Z,2.70
2019-03-17T17:38:52.510Z,2.65
2019-03-17T17:40:30.421Z,2.64
2019-03-17T17:42:10.071Z,2.59
2019-03-17T17:43:44.229Z,2.55
2019-03-17T17:45:19.722Z,2.54
2019-03-17T17:47:00.822Z,2.48
2019-03-17T17:48:40.773Z,2.50
2019-03-17T17:50:16.994Z,2.46
2019-03-17T17:51:54.244Z,2.36
2019-03-17T17:53:35.659Z,2.33
2019-03-17T17:55:19.632Z,2.33
2019-03-17T17:56:58.722Z,2.30
2019-03-17T17:58:36.647Z,2.32
2019-03-17T18:00:17.369Z,2.28
2019-03-17T18:02:04.951Z,2.29
2019-03-17T18:03:51.195Z,2.29
2019-03-17T18:05:21.970Z,2.27
2019-03-17T18:06:59.996Z,2.27
2019-03-17T18:08:36.159Z,2.24
2019-03-17T18:10:21.195Z,2.22
2019-03-17T18:12:20.802Z,2.19
2019-03-17T18:14:02.143Z,2.15
2019-03-17T18:15:44.865Z,2.12
2019-03-17T18:17:26.322Z,2.09
2019-03-17T18:19:08.263Z,2.03
2019-03-17T18:20:47.438Z,2.05
2019-03-17T18:22:25.776Z,2.01
2019-03-17T18:24:04.377Z,2.01
2019-03-17T18:25:40.577Z,1.99
2019-03-17T18:27:19.182Z,2.00
2019-03-17T18:29:09.372Z,2.00
2019-03-17T18:30:50.663Z,2.01
2019-03-17T18:32:32.564Z,2.01
2019-03-17T18:34:09.663Z,2.01
2019-03-17T18:35:45.357Z,2.05
2019-03-17T18:37:21.450Z,2.08
2019-03-17T18:38:56.697Z,2.11
2019-03-17T18:40:37.365Z,2.16
2019-03-17T18:42:16.735Z,2.21
2019-03-17T18:43:52.580Z,2.24
2019-03-17T18:45:32.892Z,2.25
2019-03-17T18:47:09.979Z,2.27
2019-03-17T18:48:52.742Z,2.25
2019-03-17T18:50:36.576Z,2.27
2019-03-17T18:52:13.996Z,2.25
2019-03-17T18:53:50.771Z,2.28
2019-03-17T18:55:35.087Z,2.28
2019-03-17T18:57:15.574Z,2.30
2019-03-17T18:58:52.785Z,2.30
2019-03-17T19:00:35.188Z,2.33
2019-03-17T19:02:17.917Z,2.35
2019-03-17T19:04:04.766Z,2.39
2019-03-17T19:05:46.402Z,2.42
2019-03-17T19:07:51.638Z,2.42
2019-03-17T19:09:26.837Z,2.42
2019-03-17T19:11:06.572Z,2.37
2019-03-17T19:12:45.803Z,2.34
2019-03-17T19:14:21.773Z,2.29
2019-03-17T19:15:58.191Z,2.22
2019-03-17T19:17:36.842Z,1.81
2019-03-17T19:19:17.028Z,1.55
2019-03-17T19:20:52.364Z,1.39
2019-03-17T19:22:27.659Z,1.33
2019-03-17T19:24:10.517Z,1.25
2019-03-17T19:25:46.015Z,1.10
2019-03-17T19:27:25.051Z,0.98
2019-03-17T19:29:00.688Z,0.83
2019-03-17T19:30:37.712Z,0.69
2019-03-17T19:32:17.219Z,0.61
2019-03-17T19:33:58.232Z,0.59
2019-03-17T19:35:34.574Z,0.58
2019-03-17T19:37:09.812Z,0.55
2019-03-17T19:38:53.154Z,0.55
2019-03-17T19:40:31.290Z,0.53
2019-03-17T19:42:13.283Z,0.54
2019-03-17T19:44:02.539Z,0.52
2019-03-17T19:45:37.905Z,0.52
2019-03-17T19:47:19.462Z,0.53
2019-03-17T19:48:56.387Z,0.56
2019-03-17T19:50:31.960Z,0.57
2019-03-17T19:52:08.376Z,0.61
2019-03-17T19:53:43.509Z,0.61
2019-03-17T19:55:21.808Z,0.61
2019-03-17T19:56:58.915Z,0.64
2019-03-17T19:58:34.274Z,0.65
2019-03-17T20:00:14.227Z,0.60
2019-03-17T20:01:56.962Z,0.53
2019-03-17T20:03:34.696Z,0.52
2019-03-17T20:05:16.102Z,0.47
2019-03-17T20:06:53.819Z,0.50
2019-03-17T20:08:31.816Z,0.50
2019-03-17T20:10:09.294Z,0.49
2019-03-17T20:11:46.713Z,0.49
2019-03-17T20:13:23.328Z,0.47
2019-03-17T20:14:58.755Z,0.44
2019-03-17T20:16:36.719Z,0.47
2019-03-17T20:18:15.550Z,0.42
2019-03-17T20:19:51.718Z,0.45
2019-03-17T20:21:29.362Z,0.46
2019-03-17T20:23:05.261Z,0.43
2019-03-17T20:24:40.865Z,0.46
2019-03-17T20:26:28.561Z,0.44
2019-03-17T20:28:23.754Z,0.45
2019-03-17T20:30:07.003Z,0.46
2019-03-17T20:31:46.898Z,0.45
2019-03-17T20:33:30.176Z,0.49
2019-03-17T20:35:10.929Z,0.46
2019-03-17T20:36:47.222Z,0.42
2019-03-17T20:38:25.717Z,0.47
2019-03-17T20:40:07.383Z,0.46
2019-03-17T20:41:46.573Z,0.47
2019-03-17T20:43:34.828Z,0.48
2019-03-17T20:45:04.782Z,0.50
2019-03-17T20:46:44.132Z,0.51
2019-03-17T20:48:25.331Z,0.52
2019-03-17T20:50:09.490Z,0.54
2019-03-17T20:51:51.382Z,0.61
2019-03-17T20:53:30.118Z,0.53
2019-03-17T20:55:07.615Z,0.55
2019-03-17T20:56:47.441Z,0.57
2019-03-17T20:58:34.212Z,0.61
2019-03-17T21:00:19.834Z,0.59
2019-03-17T21:01:56.923Z,0.62
2019-03-17T21:03:54.796Z,0.66
2019-03-17T21:05:35.922Z,0.70
2019-03-17T21:07:18.252Z,0.66
2019-03-17T21:08:56.010Z,0.62
2019-03-17T21:10:34.755Z,0.62
2019-03-17T21:12:12.924Z,0.61
2019-03-17T21:13:49.337Z,0.62
2019-03-17T21:15:32.724Z,0.62
2019-03-17T21:17:10.210Z,0.63
2019-03-17T21:18:45.827Z,0.61
2019-03-17T21:20:26.867Z,0.61
2019-03-17T21:22:07.066Z,0.58
2019-03-17T21:23:52.057Z,0.61
2019-03-17T21:25:30.628Z,0.52
2019-03-17T21:27:06.405Z,0.53
2019-03-17T21:28:46.852Z,0.51
2019-03-17T21:30:28.954Z,0.50
2019-03-17T21:32:05.627Z,0.48
2019-03-17T21:33:45.266Z,0.43
2019-03-17T21:35:37.783Z,0.48
2019-03-17T21:37:15.604Z,0.45
2019-03-17T21:39:03.253Z,0.44
2019-03-17T21:41:01.333Z,0.40
2019-03-17T21:42:19.345Z,0.33
2019-03-17T21:43:59.564Z,0.32
2019-03-17T21:45:33.412Z,0.32
2019-03-17T21:47:23.050Z,0.32
2019-03-17T21:49:02.422Z,0.28